createdAt,value
2018-02-07T00:02:08.687Z,91.60
2018-02-07T00:04:36.289Z,91.30
2018-02-07T00:07:03.151Z,91.30
2018-02-07T00:09:30.015Z,91.50
2018-02-07T00:11:57.642Z,91.90
2018-02-07T00:14:24.534Z,91.90
2018-02-07T00:16:51.413Z,92.20
2018-02-07T00:19:18.234Z,91.90
2018-02-07T00:21:45.122Z,91.60
2018-02-07T00:24:11.958Z,91.70
2018-02-07T00:26:38.781Z,91.20
2018-02-07T00:29:05.642Z,91.50
2018-02-07T00:31:32.553Z,91.70
2018-02-07T00:33:59.414Z,91.70
2018-02-07T00:36:26.234Z,91.30
2018-02-07T00:38:53.107Z,91.20
2018-02-07T00:41:19.993Z,91.40
2018-02-07T00:43:47.603Z,91.70
2018-02-07T00:46:14.422Z,91.70
2018-02-07T00:48:41.986Z,91.80
2018-02-07T00:51:09.757Z,91.40
2018-02-07T00:53:36.609Z,91.30
2018-02-07T00:56:03.450Z,91.10
2018-02-07T00:58:31.478Z,90.50
2018-02-07T01:00:58.450Z,90.50
2018-02-07T01:03:25.394Z,90.30
2018-02-07T01:05:52.284Z,90.20
2018-02-07T01:08:19.182Z,90.20
2018-02-07T01:10:46.021Z,90.60
2018-02-07T01:13:12.922Z,90.50
2018-02-07T01:15:39.770Z,90.40
2018-02-07T01:18:06.656Z,90.20
2018-02-07T01:20:33.477Z,90.90
2018-02-07T01:23:01.108Z,90.90
2018-02-07T01:25:27.977Z,90.90
2018-02-07T01:27:54.801Z,90.80
2018-02-07T01:30:21.643Z,90.60
2018-02-07T01:32:48.594Z,90.50
2018-02-07T01:35:15.472Z,90.30
2018-02-07T01:37:42.305Z,90.40
2018-02-07T01:40:09.222Z,90.70
2018-02-07T01:42:36.169Z,90.90
2018-02-07T01:45:03.033Z,91.40
2018-02-07T01:47:30.710Z,91.60
2018-02-07T01:49:58.269Z,91.50
2018-02-07T01:52:25.870Z,91.20
2018-02-07T01:54:52.706Z,91.20
2018-02-07T01:57:19.538Z,91.30
2018-02-07T01:59:46.420Z,91.10
2018-02-07T02:02:13.357Z,91.20
2018-02-07T02:04:40.396Z,91.40
2018-02-07T02:07:07.225Z,91.80
2018-02-07T02:09:34.059Z,91.80
2018-02-07T02:12:00.950Z,91.60
2018-02-07T02:14:27.798Z,92.10
2018-02-07T02:16:55.390Z,91.80
2018-02-07T02:19:22.310Z,91.80
2018-02-07T02:21:49.125Z,91.80
2018-02-07T02:24:15.939Z,91.20
2018-02-07T02:26:42.747Z,91.70
2018-02-07T02:29:10.327Z,91.80
2018-02-07T02:31:37.229Z,91.70
2018-02-07T02:34:04.052Z,91.40
2018-02-07T02:36:38.936Z,91.50
2018-02-07T02:39:05.767Z,91.00
2018-02-07T02:41:33.386Z,90.70
2018-02-07T02:44:00.262Z,90.70
2018-02-07T02:46:27.296Z,91.10
2018-02-07T02:48:54.156Z,91.30
2018-02-07T02:51:21.069Z,91.50
2018-02-07T02:53:47.923Z,91.20
2018-02-07T02:56:14.729Z,91.30
2018-02-07T02:58:41.558Z,91.50
2018-02-07T03:01:08.398Z,91.30
2018-02-07T03:03:35.990Z,91.50
2018-02-07T03:06:02.873Z,91.50
2018-02-07T03:08:30.442Z,91.70
2018-02-07T03:10:57.338Z,91.60
2018-02-07T03:13:24.290Z,91.90
2018-02-07T03:15:51.110Z,92.00
2018-02-07T03:18:18.657Z,92.10
2018-02-07T03:20:46.254Z,91.80
2018-02-07T03:23:13.129Z,91.60
2018-02-07T03:25:39.965Z,91.80
2018-02-07T03:28:06.789Z,91.80
2018-02-07T03:30:33.677Z,91.60
2018-02-07T03:33:01.303Z,91.60
2018-02-07T03:35:28.364Z,91.60
2018-02-07T03:37:55.186Z,92.30
2018-02-07T03:40:22.006Z,92.20
2018-02-07T03:42:48.897Z,92.70
2018-02-07T03:45:15.721Z,92.90
2018-02-07T03:47:42.577Z,92.90
2018-02-07T03:50:09.393Z,92.80
2018-02-07T03:52:36.258Z,92.60
2018-02-07T03:55:03.124Z,92.90
2018-02-07T03:57:29.906Z,92.70
2018-02-07T03:59:56.713Z,92.60
2018-02-07T04:02:24.373Z,92.50
2018-02-07T04:04:51.165Z,92.90
2018-02-07T04:07:18.042Z,92.70
2018-02-07T04:09:44.886Z,92.80
2018-02-07T04:12:11.740Z,93.30
2018-02-07T04:14:39.316Z,93.40
2018-02-07T04:17:06.866Z,93.10
2018-02-07T04:19:33.712Z,93.00
2018-02-07T04:22:01.346Z,93.10
2018-02-07T04:24:28.145Z,93.10
2018-02-07T04:26:54.966Z,93.30
2018-02-07T04:29:28.722Z,92.70
2018-02-07T04:31:55.605Z,92.90
2018-02-07T04:34:22.430Z,93.10
2018-02-07T04:36:49.247Z,92.70
2018-02-07T04:39:16.069Z,93.10
2018-02-07T04:41:42.950Z,93.40
2018-02-07T04:44:09.755Z,92.80
2018-02-07T04:46:36.558Z,93.10
2018-02-07T04:49:04.142Z,93.30
2018-02-07T04:51:31.012Z,93.30
2018-02-07T04:53:57.837Z,93.20
2018-02-07T04:56:24.660Z,93.50
2018-02-07T04:58:52.190Z,94.00
2018-02-07T05:01:19.850Z,93.90
2018-02-07T05:03:47.414Z,93.60
2018-02-07T05:06:14.246Z,93.60
2018-02-07T05:08:41.045Z,93.60
2018-02-07T05:11:07.882Z,93.70
2018-02-07T05:13:34.709Z,94.10
2018-02-07T05:16:02.275Z,94.20
2018-02-07T05:18:29.085Z,94.20
2018-02-07T05:20:55.869Z,94.50
2018-02-07T05:23:22.760Z,94.50
2018-02-07T05:25:49.646Z,94.40
2018-02-07T05:28:16.490Z,94.30
2018-02-07T05:30:43.431Z,94.00
2018-02-07T05:33:10.318Z,94.00
2018-02-07T05:35:37.929Z,94.40
2018-02-07T05:38:04.782Z,94.30
2018-02-07T05:40:31.646Z,94.00
2018-02-07T05:42:58.557Z,93.50
2018-02-07T05:45:25.346Z,93.60
2018-02-07T05:47:52.249Z,93.40
2018-02-07T05:50:19.107Z,93.50
2018-02-07T05:52:46.131Z,93.50
2018-02-07T05:55:15.131Z,93.40
2018-02-07T05:57:42.581Z,93.60
2018-02-07T06:00:09.509Z,93.40
2018-02-07T06:02:36.455Z,93.30
2018-02-07T06:05:03.300Z,93.20
2018-02-07T06:07:30.861Z,93.00
2018-02-07T06:09:57.702Z,92.90
2018-02-07T06:12:25.345Z,93.00
2018-02-07T06:14:52.154Z,93.00
2018-02-07T06:17:18.965Z,92.90
2018-02-07T06:19:45.809Z,92.70
2018-02-07T06:22:12.658Z,92.80
2018-02-07T06:24:39.462Z,93.00
2018-02-07T06:27:06.290Z,93.30
2018-02-07T06:29:33.078Z,93.50
2018-02-07T06:32:00.627Z,93.30
2018-02-07T06:34:28.223Z,93.60
2018-02-07T06:36:55.042Z,93.50
2018-02-07T06:39:22.597Z,93.20
2018-02-07T06:41:50.169Z,92.30
2018-02-07T06:44:17.002Z,92.30
2018-02-07T06:46:44.533Z,93.00
2018-02-07T06:49:11.356Z,92.90
2018-02-07T06:51:38.183Z,93.30
2018-02-07T06:54:04.970Z,93.40
2018-02-07T06:56:32.585Z,93.60
2018-02-07T06:58:59.418Z,93.50
2018-02-07T07:01:26.971Z,94.00
2018-02-07T07:03:53.788Z,93.90
2018-02-07T07:06:21.391Z,93.50
2018-02-07T07:08:48.178Z,93.50
2018-02-07T07:11:15.761Z,93.80
2018-02-07T07:13:42.591Z,93.80
2018-02-07T07:16:10.150Z,93.60
2018-02-07T07:18:37.098Z,93.60
2018-02-07T07:21:03.886Z,93.40
2018-02-07T07:23:30.693Z,92.70
2018-02-07T07:25:57.521Z,92.70
2018-02-07T07:28:24.360Z,92.40
2018-02-07T07:30:51.157Z,92.20
2018-02-07T07:33:18.101Z,92.10
2018-02-07T07:35:44.905Z,92.00
2018-02-07T07:38:11.706Z,92.10
2018-02-07T07:40:38.553Z,92.30
2018-02-07T07:43:05.345Z,92.00
2018-02-07T07:45:32.209Z,92.20
2018-02-07T07:47:59.020Z,92.20
2018-02-07T07:50:25.832Z,92.30
2018-02-07T07:52:53.474Z,92.80
2018-02-07T07:55:20.393Z,92.70
2018-02-07T07:57:47.205Z,93.10
2018-02-07T08:00:14.053Z,92.50
2018-02-07T08:02:40.905Z,92.60
2018-02-07T08:05:07.741Z,92.50
2018-02-07T08:07:34.581Z,92.00
2018-02-07T08:10:01.421Z,92.20
2018-02-07T08:12:28.249Z,92.40
2018-02-07T08:14:55.049Z,92.20
2018-02-07T08:17:21.866Z,92.30
2018-02-07T08:19:48.697Z,92.00
2018-02-07T08:22:15.502Z,91.80
2018-02-07T08:24:43.101Z,91.70
2018-02-07T08:27:09.901Z,91.60
2018-02-07T08:29:36.685Z,91.60
2018-02-07T08:32:03.534Z,91.60
2018-02-07T08:34:30.406Z,91.90
2018-02-07T08:36:57.197Z,91.70
2018-02-07T08:39:24.009Z,92.10
2018-02-07T08:41:51.593Z,92.00
2018-02-07T08:44:18.410Z,92.00
2018-02-07T08:46:46.229Z,92.00
2018-02-07T08:49:13.037Z,91.90
2018-02-07T08:51:40.590Z,92.50
2018-02-07T08:54:08.158Z,92.60
2018-02-07T08:56:35.001Z,92.60
2018-02-07T08:59:01.777Z,92.70
2018-02-07T09:01:28.622Z,92.90
2018-02-07T09:03:55.406Z,92.50
2018-02-07T09:06:22.996Z,92.50
2018-02-07T09:08:49.823Z,92.50
2018-02-07T09:11:16.649Z,93.00
2018-02-07T09:13:44.242Z,92.50
2018-02-07T09:16:11.085Z,92.40
2018-02-07T09:18:37.893Z,92.30
2018-02-07T09:21:04.721Z,92.70
2018-02-07T09:23:31.565Z,91.70
2018-02-07T09:25:58.366Z,92.50
2018-02-07T09:28:25.194Z,93.00
2018-02-07T09:30:52.751Z,92.10
2018-02-07T09:33:19.573Z,92.10
2018-02-07T09:35:47.150Z,91.60
2018-02-07T09:38:13.998Z,91.60
2018-02-07T09:40:40.857Z,91.60
2018-02-07T09:43:07.666Z,92.40
2018-02-07T09:45:34.457Z,92.00
2018-02-07T09:48:01.291Z,91.70
2018-02-07T09:50:28.122Z,91.60
2018-02-07T09:52:55.018Z,91.50
2018-02-07T09:55:21.829Z,91.50
2018-02-07T09:57:48.662Z,91.20
2018-02-07T10:00:15.491Z,90.70
2018-02-07T10:02:42.329Z,91.10
2018-02-07T10:05:09.162Z,91.10
2018-02-07T10:07:35.974Z,90.80
2018-02-07T10:10:03.544Z,90.40
2018-02-07T10:12:31.119Z,89.40
2018-02-07T10:14:57.955Z,89.30
2018-02-07T10:17:25.521Z,88.80
2018-02-07T10:19:53.062Z,89.90
2018-02-07T10:22:19.896Z,89.90
2018-02-07T10:24:46.713Z,90.00
2018-02-07T10:27:13.529Z,90.00
2018-02-07T10:29:40.457Z,89.50
2018-02-07T10:32:07.294Z,89.80
2018-02-07T10:34:34.855Z,90.30
2018-02-07T10:37:01.709Z,90.30
2018-02-07T10:39:29.590Z,90.40
2018-02-07T10:41:56.449Z,90.60
2018-02-07T10:44:23.245Z,90.50
2018-02-07T10:46:50.323Z,91.30
2018-02-07T10:49:17.259Z,91.10
2018-02-07T10:51:44.112Z,90.20
2018-02-07T10:54:10.901Z,90.00
2018-02-07T10:56:38.504Z,90.50
2018-02-07T10:59:05.320Z,90.50
2018-02-07T11:01:32.983Z,90.70
2018-02-07T11:04:00.558Z,90.90
2018-02-07T11:06:27.369Z,90.90
2018-02-07T11:08:54.189Z,90.90
2018-02-07T11:11:20.992Z,90.20
2018-02-07T11:13:47.818Z,90.90
2018-02-07T11:16:15.361Z,90.90
2018-02-07T11:18:42.166Z,90.90
2018-02-07T11:21:09.745Z,91.30
2018-02-07T11:23:36.561Z,91.30
2018-02-07T11:26:03.355Z,91.50
2018-02-07T11:28:30.165Z,91.40
2018-02-07T11:30:56.974Z,91.40
2018-02-07T11:33:23.830Z,91.60
2018-02-07T11:35:50.641Z,91.70
2018-02-07T11:38:17.470Z,90.80
2018-02-07T11:40:45.007Z,90.90
2018-02-07T11:43:12.589Z,90.80
2018-02-07T11:45:40.154Z,89.80
2018-02-07T11:48:06.969Z,89.80
2018-02-07T11:50:33.793Z,87.50
2018-02-07T11:53:00.753Z,88.30
2018-02-07T11:55:27.583Z,89.00
2018-02-07T11:57:55.127Z,87.20
2018-02-07T12:00:22.705Z,87.00
2018-02-07T12:02:49.566Z,86.90
2018-02-07T12:05:16.405Z,85.40
2018-02-07T12:07:43.213Z,85.10
2018-02-07T12:10:10.902Z,85.30
2018-02-07T12:12:37.713Z,85.20
2018-02-07T12:15:04.514Z,83.80
2018-02-07T12:17:31.366Z,84.00
2018-02-07T12:19:58.181Z,83.70
2018-02-07T13:44:21.902Z,86.70
2018-02-07T13:46:48.746Z,90.30
2018-02-07T13:49:16.237Z,90.00
2018-02-07T13:51:43.042Z,90.20
2018-02-07T13:54:09.901Z,89.90
2018-02-07T13:56:36.791Z,90.50
2018-02-07T13:59:04.363Z,90.40
2018-02-07T14:01:31.922Z,90.50
2018-02-07T14:03:59.561Z,90.80
2018-02-07T14:06:27.157Z,90.80
2018-02-07T14:08:54.034Z,90.80
2018-02-07T14:11:20.854Z,90.40
2018-02-07T14:13:48.383Z,91.10
2018-02-07T14:16:15.201Z,91.00
2018-02-07T14:18:42.005Z,91.00
2018-02-07T14:21:08.805Z,91.00
2018-02-07T14:23:36.389Z,91.90
2018-02-07T14:26:03.206Z,91.80
2018-02-07T14:28:30.782Z,92.20
2018-02-07T14:30:58.314Z,92.10
2018-02-07T14:33:25.894Z,91.90
2018-02-07T14:35:53.475Z,91.10
2018-02-07T14:38:20.318Z,91.10
2018-02-07T14:40:47.277Z,91.60
2018-02-07T14:43:14.094Z,91.20
2018-02-07T14:45:40.914Z,92.00
2018-02-07T14:48:08.499Z,92.30
2018-02-07T14:50:35.354Z,92.30
2018-02-07T14:53:02.209Z,91.60
2018-02-07T14:55:29.066Z,91.70
2018-02-07T14:57:55.874Z,91.90
2018-02-07T15:00:22.709Z,92.10
2018-02-07T15:02:49.589Z,92.00
2018-02-07T15:05:16.400Z,92.10
2018-02-07T15:07:43.230Z,92.30
2018-02-07T15:10:10.821Z,91.80
2018-02-07T15:12:37.627Z,91.80
2018-02-07T15:15:04.546Z,91.90
2018-02-07T15:17:32.123Z,92.10
2018-02-07T15:19:59.686Z,91.90
2018-02-07T15:22:26.530Z,91.90
2018-02-07T15:24:53.325Z,92.20
2018-02-07T15:27:20.148Z,92.30
2018-02-07T15:29:47.008Z,92.10
2018-02-07T15:32:14.621Z,91.70
2018-02-07T15:34:42.173Z,91.50
2018-02-07T15:37:09.782Z,92.00
2018-02-07T15:39:36.602Z,92.10
2018-02-07T15:42:03.461Z,92.10
2018-02-07T15:44:30.309Z,92.00
2018-02-07T15:46:57.132Z,91.80
2018-02-07T15:49:24.001Z,92.20
2018-02-07T15:51:51.569Z,92.20
2018-02-07T15:54:18.467Z,92.10
2018-02-07T15:56:45.284Z,92.70
2018-02-07T15:59:12.098Z,93.20
2018-02-07T16:01:38.964Z,92.90
2018-02-07T16:04:06.681Z,93.10
2018-02-07T16:06:33.506Z,93.00
2018-02-07T16:09:00.346Z,92.70
2018-02-07T16:11:27.236Z,92.90
2018-02-07T16:13:54.977Z,93.00
2018-02-07T16:16:21.841Z,93.00
2018-02-07T16:18:48.873Z,92.50
2018-02-07T16:21:15.693Z,93.20
2018-02-07T16:23:43.277Z,93.20
2018-02-07T16:26:10.175Z,93.20
2018-02-07T16:28:37.054Z,93.10
2018-02-07T16:31:03.861Z,92.90
2018-02-07T16:33:31.465Z,92.90
2018-02-07T16:35:58.263Z,92.90
2018-02-07T16:38:25.821Z,92.80
2018-02-07T16:40:53.415Z,92.60
2018-02-07T16:43:20.305Z,93.00
2018-02-07T16:45:47.882Z,92.50
2018-02-07T16:48:15.735Z,92.70
2018-02-07T16:50:42.626Z,92.60
2018-02-07T16:53:09.465Z,93.00
2018-02-07T16:55:36.329Z,93.00
2018-02-07T16:58:03.282Z,92.70
2018-02-07T17:00:30.099Z,92.50
2018-02-07T17:02:56.916Z,92.50
2018-02-07T17:05:23.755Z,92.80
2018-02-07T17:07:51.309Z,93.10
2018-02-07T17:10:18.865Z,93.40
2018-02-07T17:12:45.720Z,93.40
2018-02-07T17:15:12.563Z,93.60
2018-02-07T17:17:40.398Z,93.70
2018-02-07T17:20:07.315Z,93.70
2018-02-07T17:22:34.386Z,93.70
2018-02-07T17:25:01.202Z,93.50
2018-02-07T17:27:28.038Z,93.40
2018-02-07T17:29:55.089Z,93.20
2018-02-07T17:32:21.977Z,93.50
2018-02-07T17:34:48.809Z,93.10
2018-02-07T17:37:15.652Z,92.90
2018-02-07T17:39:42.472Z,92.50
2018-02-07T17:42:09.335Z,92.90
2018-02-07T17:44:36.182Z,92.80
2018-02-07T17:47:03.065Z,93.20
2018-02-07T17:49:30.632Z,92.50
2018-02-07T17:51:57.462Z,92.50
2018-02-07T17:54:25.189Z,92.20
2018-02-07T17:56:52.112Z,92.10
2018-02-07T17:59:19.742Z,92.60
2018-02-07T19:23:43.602Z,92.70
2018-02-07T19:26:10.410Z,95.40
2018-02-07T19:28:37.239Z,95.50
2018-02-07T19:31:04.069Z,95.10
2018-02-07T19:33:30.930Z,95.20
2018-02-07T19:35:57.777Z,94.80
2018-02-07T19:38:24.598Z,94.80
2018-02-07T19:40:51.438Z,94.90
2018-02-07T19:43:18.394Z,94.80
2018-02-07T19:45:45.210Z,95.10
2018-02-07T19:48:12.034Z,94.90
2018-02-07T19:50:38.982Z,95.00
2018-02-07T19:53:05.869Z,94.70
2018-02-07T19:55:32.702Z,93.40
2018-02-07T19:57:59.544Z,93.70
2018-02-07T20:00:27.254Z,94.10
2018-02-07T20:02:54.997Z,94.30
2018-02-07T20:05:21.814Z,94.30
2018-02-07T20:07:49.354Z,94.40
2018-02-07T20:10:16.805Z,94.30
2018-02-07T20:12:44.534Z,94.10
2018-02-07T20:15:18.326Z,94.10
2018-02-07T20:17:45.169Z,93.60
2018-02-07T20:20:12.938Z,93.40
2018-02-07T20:22:40.493Z,93.70
2018-02-07T20:25:07.322Z,94.30
2018-02-07T20:27:34.907Z,94.70
2018-02-07T20:30:02.500Z,94.70
2018-02-07T20:32:29.346Z,94.70
2018-02-07T20:34:57.789Z,94.80
2018-02-07T20:37:25.342Z,94.70
2018-02-07T20:39:52.917Z,95.20
2018-02-07T20:42:19.789Z,95.30
2018-02-07T20:44:46.606Z,95.30
2018-02-07T20:47:13.405Z,95.20
2018-02-07T20:49:40.377Z,94.90
2018-02-07T20:52:08.030Z,94.10
2018-02-07T20:54:34.842Z,94.00
2018-02-07T20:57:02.677Z,94.60
2018-02-07T20:59:29.507Z,94.60
2018-02-07T21:01:56.339Z,94.60
2018-02-07T21:04:23.174Z,94.60
2018-02-07T21:06:49.993Z,94.60
2018-02-07T21:09:16.854Z,94.10
2018-02-07T21:11:43.709Z,93.70
2018-02-07T21:14:10.611Z,94.40
2018-02-07T21:16:37.509Z,94.40
2018-02-07T21:19:04.554Z,94.10
2018-02-07T21:21:31.374Z,94.10
2018-02-07T21:23:58.231Z,94.50
2018-02-07T21:26:25.067Z,94.30
2018-02-07T21:28:51.854Z,93.80
2018-02-07T21:31:19.445Z,94.30
2018-02-07T21:33:46.245Z,94.20
2018-02-07T21:36:13.830Z,94.20
2018-02-07T21:38:41.466Z,94.30
2018-02-07T21:41:09.114Z,93.80
2018-02-07T21:43:36.374Z,93.80
2018-02-07T21:46:03.382Z,94.20
2018-02-07T21:48:30.185Z,94.00
2018-02-07T21:50:57.285Z,94.20
2018-02-07T21:53:25.265Z,94.00
2018-02-07T21:55:53.834Z,94.00
2018-02-07T21:58:20.862Z,94.10
2018-02-07T22:00:47.754Z,94.90
2018-02-07T22:03:15.021Z,94.80
2018-02-07T22:05:41.922Z,95.00
2018-02-07T22:08:08.886Z,94.50
2018-02-07T22:10:35.853Z,94.70
2018-02-07T22:13:02.766Z,94.20
2018-02-07T22:15:31.333Z,94.80
2018-02-07T22:17:58.176Z,94.80
2018-02-07T22:20:24.998Z,94.80
2018-02-07T22:22:51.862Z,95.20
2018-02-07T22:25:18.697Z,95.30
2018-02-07T22:27:45.690Z,95.20
2018-02-07T22:30:13.286Z,94.70
2018-02-07T22:32:40.146Z,94.70
2018-02-07T22:35:07.010Z,94.80
2018-02-07T22:37:33.829Z,95.00
2018-02-07T22:40:00.674Z,94.80
2018-02-07T22:42:27.520Z,94.70
2018-02-07T22:44:54.350Z,94.80
2018-02-07T22:47:21.202Z,94.70
2018-02-07T22:49:48.041Z,94.70
2018-02-07T22:52:14.873Z,94.40
2018-02-07T22:54:41.741Z,95.50
2018-02-07T22:57:08.564Z,95.20
2018-02-07T22:59:35.406Z,95.00
2018-02-07T23:02:02.305Z,94.80
2018-02-07T23:04:29.130Z,95.40
2018-02-07T23:06:55.975Z,95.30
2018-02-07T23:09:23.542Z,95.00
2018-02-07T23:11:50.381Z,95.00
2018-02-07T23:14:17.210Z,94.60
2018-02-07T23:16:44.812Z,95.10
2018-02-07T23:19:12.378Z,95.20
2018-02-07T23:21:39.254Z,95.20
2018-02-07T23:24:06.117Z,95.70
2018-02-07T23:26:32.946Z,95.20
2018-02-07T23:28:59.846Z,95.40
2018-02-07T23:31:27.412Z,95.60
2018-02-07T23:33:54.265Z,95.60
2018-02-07T23:36:21.122Z,95.20
2018-02-07T23:38:48.691Z,95.20
2018-02-07T23:41:15.521Z,95.20
2018-02-07T23:43:43.082Z,94.90
2018-02-07T23:46:09.936Z,94.90
2018-02-07T23:48:36.773Z,95.40
2018-02-07T23:51:03.622Z,95.60
2018-02-07T23:53:30.468Z,95.40
2018-02-07T23:55:57.328Z,95.30
2018-02-07T23:58:24.213Z,94.70
